Time;durP1;ratioP1;P1;durP2;ratioP2;P2;SDS_P1;SDS_P2;PMS_P1;PMS_P2;Temp;Humidity;BMP_temperature;BMP_pressure;BME280_temperature;BME280_humidity;BME280_pressure;Samples;Min_cycle;Max_cycle;Signal;HPM_P1;HPM_P2
2024/04/13 00:02:17;;;;;;;;;;;;;;;18.27;62.76;102415.13;5242030;27;19938;-93
2024/04/13 00:04:42;;;;;;;;;;;;;;;18.27;62.99;102415.13;5235448;27;19940;-93
2024/04/13 00:07:08;;;;;;;;;;;;;;;18.25;63.16;102415.41;5241627;27;20008;-93
2024/04/13 00:09:33;;;;;;;;;;;;;;;18.24;62.75;102408.34;5240089;27;19939;-93
2024/04/13 00:11:58;;;;;;;;;;;;;;;18.25;62.69;102423.53;5239790;27;20684;-93
2024/04/13 00:14:23;;;;;;;;;;;;;;;18.24;63.17;102416.47;5245037;27;19931;-93
2024/04/13 00:16:48;;;;;;;;;;;;;;;18.21;63.26;102422.44;5241181;27;19950;-92
2024/04/13 00:19:15;;;;;;;;;;;;;;;18.19;63.45;102435.44;5243052;27;19943;-93
2024/04/13 00:21:41;;;;;;;;;;;;;;;18.16;64.11;102437.84;5247158;27;20003;-93
2024/04/13 00:24:06;;;;;;;;;;;;;;;18.14;63.99;102440.00;5248636;27;19943;-94
2024/04/13 00:26:32;;;;;;;;;;;;;;;18.13;63.48;102439.16;5241124;27;19938;-93
2024/04/13 00:28:58;;;;;;;;;;;;;;;18.10;63.85;102436.97;5248355;27;19932;-93
2024/04/13 00:31:24;;;;;;;;;;;;;;;18.07;64.04;102437.47;5240264;27;19939;-94
2024/04/13 00:33:49;;;;;;;;;;;;;;;18.04;63.44;102427.16;5240654;27;20588;-93
2024/04/13 00:36:14;;;;;;;;;;;;;;;18.01;64.47;102427.66;5240260;27;20261;-93
2024/04/13 00:38:39;;;;;;;;;;;;;;;17.98;63.80;102414.63;5235623;27;20003;-94
2024/04/13 00:41:05;;;;;;;;;;;;;;;17.94;64.39;102414.31;5244915;27;19964;-94
2024/04/13 00:43:30;;;;;;;;;;;;;;;17.91;63.79;102408.59;5209933;27;19936;-93
2024/04/13 00:45:55;;;;;;;;;;;;;;;17.90;64.08;102405.06;5237432;27;20277;-92
2024/04/13 00:48:24;;;;;;;;;;;;;;;17.89;64.71;102405.31;5235974;27;19932;-94
2024/04/13 00:50:58;;;;;;;;;;;;;;;17.85;64.67;102401.47;5244100;27;19948;-94
2024/04/13 00:53:25;;;;;;;;;;;;;;;17.83;64.81;102403.63;5226901;27;19939;-93
2024/04/13 00:55:53;;;;;;;;;;;;;;;17.80;65.35;102413.09;5214908;27;19932;-93
2024/04/13 00:58:25;;;;;;;;;;;;;;;17.76;64.58;102420.91;5241540;27;19964;-93
2024/04/13 01:00:51;;;;;;;;;;;;;;;17.72;65.80;102419.78;5207828;27;19932;-93
2024/04/13 01:03:16;;;;;;;;;;;;;;;17.70;65.06;102424.66;5242798;27;19935;-93
2024/04/13 01:05:42;;;;;;;;;;;;;;;17.68;65.06;102423.28;5239335;27;19932;-93
2024/04/13 01:08:07;;;;;;;;;;;;;;;17.67;65.50;102432.44;5238600;27;19939;-92
2024/04/13 01:10:32;;;;;;;;;;;;;;;17.68;65.78;102421.38;5240143;27;19943;-92
2024/04/13 01:12:57;;;;;;;;;;;;;;;17.71;66.00;102412.72;5245237;27;19931;-92
2024/04/13 01:15:27;;;;;;;;;;;;;;;17.75;66.42;102421.97;5236856;27;19932;-92
2024/04/13 01:17:53;;;;;;;;;;;;;;;17.80;66.05;102422.06;5237356;27;19931;-93
2024/04/13 01:20:18;;;;;;;;;;;;;;;17.84;66.29;102416.94;5233802;27;19932;-93
2024/04/13 01:22:44;;;;;;;;;;;;;;;17.88;66.06;102428.06;5239508;27;19931;-92
2024/04/13 01:25:09;;;;;;;;;;;;;;;17.91;66.68;102430.28;5239004;27;19939;-93
2024/04/13 01:27:35;;;;;;;;;;;;;;;17.92;66.84;102424.59;5240686;27;19932;-91
2024/04/13 01:30:00;;;;;;;;;;;;;;;17.96;66.77;102430.34;5232234;27;19936;-93
2024/04/13 01:32:25;;;;;;;;;;;;;;;17.97;66.75;102427.38;5235773;27;20273;-94
2024/04/13 01:34:51;;;;;;;;;;;;;;;17.98;67.42;102434.44;5244873;27;20392;-93
2024/04/13 01:37:16;;;;;;;;;;;;;;;17.97;66.98;102426.56;5251713;27;19935;-93
2024/04/13 01:39:42;;;;;;;;;;;;;;;17.97;67.30;102440.13;5235769;27;19938;-94
2024/04/13 01:42:07;;;;;;;;;;;;;;;17.95;67.92;102434.91;5226978;27;20002;-91
2024/04/13 01:44:33;;;;;;;;;;;;;;;17.97;67.46;102438.22;5236734;27;19944;-94
2024/04/13 01:47:01;;;;;;;;;;;;;;;18.00;66.79;102435.00;5228965;27;20001;-92
2024/04/13 01:49:26;;;;;;;;;;;;;;;18.04;66.90;102432.56;5216150;27;20415;-94
2024/04/13 01:51:51;;;;;;;;;;;;;;;18.05;67.34;102439.63;5230795;27;19944;-94
2024/04/13 01:54:17;;;;;;;;;;;;;;;18.06;66.59;102430.44;5230507;27;19932;-95
2024/04/13 01:56:42;;;;;;;;;;;;;;;18.07;67.40;102424.75;5225623;27;19997;-93
2024/04/13 01:59:08;;;;;;;;;;;;;;;18.09;67.18;102425.28;5224515;27;19932;-93
2024/04/13 02:01:33;;;;;;;;;;;;;;;18.12;66.97;102426.66;5216611;27;19946;-92
2024/04/13 02:03:59;;;;;;;;;;;;;;;18.11;67.19;102422.31;5240072;27;20597;-94
2024/04/13 02:06:24;;;;;;;;;;;;;;;18.12;67.93;102421.25;5226674;27;19940;-93
2024/04/13 02:08:49;;;;;;;;;;;;;;;18.13;67.50;102414.75;5243382;27;19943;-93
2024/04/13 02:11:15;;;;;;;;;;;;;;;18.14;67.37;102419.13;5232897;27;19938;-93
2024/04/13 02:13:41;;;;;;;;;;;;;;;18.14;67.72;102421.00;5231421;27;19936;-93
2024/04/13 02:16:07;;;;;;;;;;;;;;;18.14;67.95;102421.84;5239465;27;19997;-93
2024/04/13 02:18:32;;;;;;;;;;;;;;;18.16;67.56;102422.38;5226929;27;19939;-93
2024/04/13 02:20:57;;;;;;;;;;;;;;;18.18;67.93;102424.84;5235058;27;19931;-94
2024/04/13 02:23:22;;;;;;;;;;;;;;;18.19;67.77;102418.34;5225630;27;20368;-92
2024/04/13 02:25:49;;;;;;;;;;;;;;;18.19;68.46;102416.44;5230866;27;19932;-94
2024/04/13 02:28:15;;;;;;;;;;;;;;;18.18;68.51;102422.13;5230554;27;19947;-95
2024/04/13 02:30:40;;;;;;;;;;;;;;;18.17;68.31;102429.44;5231925;27;19932;-93
2024/04/13 02:33:06;;;;;;;;;;;;;;;18.17;68.41;102428.63;5233833;27;19932;-94
2024/04/13 02:35:31;;;;;;;;;;;;;;;18.15;68.62;102423.47;5240068;27;20002;-93
2024/04/13 02:37:56;;;;;;;;;;;;;;;18.14;68.53;102405.56;5236002;27;19931;-94
2024/04/13 02:40:23;;;;;;;;;;;;;;;18.10;69.23;102415.25;5234706;27;19942;-94
2024/04/13 02:42:51;;;;;;;;;;;;;;;18.09;68.77;102400.88;5224240;27;20150;-93
2024/04/13 02:45:18;;;;;;;;;;;;;;;18.10;68.59;102399.00;5223757;27;19932;-93
2024/04/13 02:47:45;;;;;;;;;;;;;;;18.09;69.30;102397.34;5232776;27;20449;-93
2024/04/13 02:50:11;;;;;;;;;;;;;;;18.05;69.39;102402.47;5229657;27;19932;-94
2024/04/13 02:52:37;;;;;;;;;;;;;;;18.05;69.09;102402.47;5227331;27;19939;-93
2024/04/13 02:55:04;;;;;;;;;;;;;;;18.06;68.91;102387.84;5233360;27;19931;-94
2024/04/13 02:57:29;;;;;;;;;;;;;;;18.07;69.29;102388.66;5215207;27;19939;-94
2024/04/13 02:59:55;;;;;;;;;;;;;;;18.07;69.48;102385.94;5235869;27;19944;-94
2024/04/13 03:02:20;;;;;;;;;;;;;;;18.06;69.31;102381.59;5231857;27;19932;-94
2024/04/13 03:04:45;;;;;;;;;;;;;;;18.07;68.91;102383.25;5221384;27;19939;-94
2024/04/13 03:07:10;;;;;;;;;;;;;;;18.04;69.80;102383.75;5224480;27;19932;-93
2024/04/13 03:09:35;;;;;;;;;;;;;;;18.01;69.72;102384.28;5236057;27;19964;-93
2024/04/13 03:12:01;;;;;;;;;;;;;;;17.99;70.05;102383.72;5220336;27;19943;-94
2024/04/13 03:14:29;;;;;;;;;;;;;;;17.96;70.04;102389.66;5239598;27;19932;-93
2024/04/13 03:16:54;;;;;;;;;;;;;;;17.94;69.83;102389.91;5233201;27;19942;-94
2024/04/13 03:19:19;;;;;;;;;;;;;;;17.92;69.92;102385.81;5241000;27;19940;-94
2024/04/13 03:21:48;;;;;;;;;;;;;;;17.89;69.99;102392.56;5224855;27;19993;-94
2024/04/13 03:24:14;;;;;;;;;;;;;;;17.87;70.04;102389.31;5229888;27;19932;-93
2024/04/13 03:26:39;;;;;;;;;;;;;;;17.86;70.32;102390.38;5227448;27;19959;-94
2024/04/13 03:29:04;;;;;;;;;;;;;;;17.83;69.60;102382.75;5238812;27;19931;-93
2024/04/13 03:31:29;;;;;;;;;;;;;;;17.80;69.36;102381.38;5214100;27;19996;-91
2024/04/13 03:33:58;;;;;;;;;;;;;;;17.77;69.22;102390.03;5215418;27;20389;-94
2024/04/13 03:36:24;;;;;;;;;;;;;;;17.74;69.46;102390.53;5234599;27;19939;-93
2024/04/13 03:38:54;;;;;;;;;;;;;;;17.74;68.48;102390.53;5229378;27;19944;-94
2024/04/13 03:41:21;;;;;;;;;;;;;;;17.69;68.64;102389.66;5215983;27;19944;-94
2024/04/13 03:43:46;;;;;;;;;;;;;;;17.68;68.55;102396.16;5225158;27;19967;-94
2024/04/13 03:46:11;;;;;;;;;;;;;;;17.65;68.66;102394.75;5239692;27;19935;-93
2024/04/13 03:48:41;;;;;;;;;;;;;;;17.63;68.56;102398.81;5203534;27;20369;-93
2024/04/13 03:51:08;;;;;;;;;;;;;;;17.58;69.03;102404.16;5221079;27;19951;-94
2024/04/13 03:53:33;;;;;;;;;;;;;;;17.55;68.36;102401.94;5231449;27;19932;-94
2024/04/13 03:55:59;;;;;;;;;;;;;;;17.53;68.12;102396.78;5218634;27;19931;-93
2024/04/13 03:58:24;;;;;;;;;;;;;;;17.54;66.84;102393.00;5228282;27;19939;-94
2024/04/13 04:00:49;;;;;;;;;;;;;;;17.51;66.48;102391.63;5227557;27;19946;-92
2024/04/13 04:03:14;;;;;;;;;;;;;;;17.49;66.05;102387.53;5235891;27;19947;-92
2024/04/13 04:05:40;;;;;;;;;;;;;;;17.46;64.98;102382.63;5231920;27;19932;-92
2024/04/13 04:08:06;;;;;;;;;;;;;;;17.46;64.76;102393.47;5227203;27;20383;-93
2024/04/13 04:10:32;;;;;;;;;;;;;;;17.47;64.66;102397.81;5231857;27;20629;-92
2024/04/13 04:13:01;;;;;;;;;;;;;;;17.45;64.53;102397.25;5218251;27;19931;-91
2024/04/13 04:15:26;;;;;;;;;;;;;;;17.41;64.56;102396.09;5238845;27;20258;-92
2024/04/13 04:17:51;;;;;;;;;;;;;;;17.40;64.54;102397.16;5235057;27;19932;-93
2024/04/13 04:20:17;;;;;;;;;;;;;;;17.38;64.21;102391.19;5226180;27;19932;-92
2024/04/13 04:22:42;;;;;;;;;;;;;;;17.37;63.97;102400.38;5235011;27;19947;-93
2024/04/13 04:25:08;;;;;;;;;;;;;;;17.36;64.47;102390.63;5240400;27;19959;-92
2024/04/13 04:27:34;;;;;;;;;;;;;;;17.34;64.38;102396.31;5227330;27;20409;-93
2024/04/13 04:29:59;;;;;;;;;;;;;;;17.33;64.45;102394.66;5223461;27;20273;-92
2024/04/13 04:32:24;;;;;;;;;;;;;;;17.34;64.31;102403.63;5227244;27;19931;-93
2024/04/13 04:34:50;;;;;;;;;;;;;;;17.33;64.37;102408.22;5244285;27;19932;-92
2024/04/13 04:37:15;;;;;;;;;;;;;;;17.31;63.90;102402.22;5239035;27;20001;-93
2024/04/13 04:39:40;;;;;;;;;;;;;;;17.30;64.08;102410.63;5223886;27;20412;-93
2024/04/13 04:42:06;;;;;;;;;;;;;;;17.27;63.98;102403.00;5244635;27;19937;-94
2024/04/13 04:44:31;;;;;;;;;;;;;;;17.25;64.25;102400.53;5240286;27;19940;-94
2024/04/13 04:46:57;;;;;;;;;;;;;;;17.22;63.94;102401.84;5228589;27;19938;-92
2024/04/13 04:49:22;;;;;;;;;;;;;;;17.20;64.38;102400.47;5232267;27;19938;-93
2024/04/13 04:51:47;;;;;;;;;;;;;;;17.18;64.59;102402.59;5232618;27;19931;-92
2024/04/13 04:54:15;;;;;;;;;;;;;;;17.18;64.53;102403.41;5228422;27;20388;-92
2024/04/13 04:56:41;;;;;;;;;;;;;;;17.16;64.70;102402.84;5234044;27;19943;-92
2024/04/13 04:59:06;;;;;;;;;;;;;;;17.16;64.97;102410.16;5236756;27;20444;-93
2024/04/13 05:01:31;;;;;;;;;;;;;;;17.16;64.59;102410.16;5228593;27;19944;-92
2024/04/13 05:03:57;;;;;;;;;;;;;;;17.16;65.19;102421.00;5237484;27;19958;-93
2024/04/13 05:06:22;;;;;;;;;;;;;;;17.16;65.51;102419.09;5232438;27;19931;-93
2024/04/13 05:08:47;;;;;;;;;;;;;;;17.17;65.44;102423.47;5241540;27;19931;-93
2024/04/13 05:11:14;;;;;;;;;;;;;;;17.18;65.83;102419.69;5207241;27;19943;-92
2024/04/13 05:13:40;;;;;;;;;;;;;;;17.20;65.96;102422.94;5235533;27;19931;-94
2024/04/13 05:16:08;;;;;;;;;;;;;;;17.23;65.75;102418.91;5234897;27;19944;-92
2024/04/13 05:18:33;;;;;;;;;;;;;;;17.28;65.51;102419.00;5229284;27;19932;-91
2024/04/13 05:20:58;;;;;;;;;;;;;;;17.30;65.67;102411.44;5228970;27;19942;-93
2024/04/13 05:23:24;;;;;;;;;;;;;;;17.35;65.54;102413.38;5237348;27;19939;-93
2024/04/13 05:25:52;;;;;;;;;;;;;;;17.40;65.48;102418.84;5229965;27;19961;-93
2024/04/13 05:28:20;;;;;;;;;;;;;;;17.42;65.50;102420.25;5232247;27;19932;-93
2024/04/13 05:30:55;;;;;;;;;;;;;;;17.43;65.23;102412.94;5243273;27;19943;-94
2024/04/13 05:33:20;;;;;;;;;;;;;;;17.48;65.47;102416.53;5207271;27;20007;-92
2024/04/13 05:35:46;;;;;;;;;;;;;;;17.52;65.08;102411.41;5224756;27;19932;-92
2024/04/13 05:38:12;;;;;;;;;;;;;;;17.58;65.45;102409.56;5238587;27;19939;-93
2024/04/13 05:40:37;;;;;;;;;;;;;;;17.63;65.11;102409.63;5243519;27;19951;-93
2024/04/13 05:43:02;;;;;;;;;;;;;;;17.70;65.21;102408.38;5230472;27;19931;-92
2024/04/13 05:45:28;;;;;;;;;;;;;;;17.76;64.98;102410.06;5213455;27;20006;-93
2024/04/13 05:47:53;;;;;;;;;;;;;;;17.80;64.95;102416.63;5232550;27;20378;-91
2024/04/13 05:50:18;;;;;;;;;;;;;;;17.86;64.95;102413.97;5236492;27;19944;-93
2024/04/13 05:52:44;;;;;;;;;;;;;;;17.90;65.04;102405.06;5234804;27;20431;-92
2024/04/13 05:55:09;;;;;;;;;;;;;;;17.93;65.75;102403.72;5236247;27;19939;-92
2024/04/13 05:57:35;;;;;;;;;;;;;;;17.98;65.71;102401.06;5248891;27;19939;-92
2024/04/13 06:00:01;;;;;;;;;;;;;;;18.03;65.51;102401.09;5209429;27;19967;-90
2024/04/13 06:02:26;;;;;;;;;;;;;;;18.08;65.67;102406.56;5225977;27;19938;-93
2024/04/13 06:04:56;;;;;;;;;;;;;;;18.15;65.75;102409.91;5240013;27;19943;-92
2024/04/13 06:07:21;;;;;;;;;;;;;;;18.17;66.13;102405.03;5237529;27;19939;-93
2024/04/13 06:09:47;;;;;;;;;;;;;;;18.20;66.09;102404.50;5198403;27;19932;-93
2024/04/13 06:12:15;;;;;;;;;;;;;;;18.24;66.83;102411.06;5235711;27;19955;-93
2024/04/13 06:14:41;;;;;;;;;;;;;;;18.25;66.56;102407.25;5240508;27;19939;-92
2024/04/13 06:17:06;;;;;;;;;;;;;;;18.31;66.89;102414.38;5228143;27;19939;-94
2024/04/13 06:19:31;;;;;;;;;;;;;;;18.39;66.85;102413.06;5219566;27;20546;-96
2024/04/13 06:21:57;;;;;;;;;;;;;;;18.49;66.94;102417.75;5226071;27;19931;-92
2024/04/13 06:24:22;;;;;;;;;;;;;;;18.57;66.47;102407.22;5240380;27;20380;-94
2024/04/13 06:26:47;;;;;;;;;;;;;;;18.64;66.65;102398.88;5202724;27;20444;-94
2024/04/13 06:29:12;;;;;;;;;;;;;;;18.74;66.73;102401.66;5217717;27;19932;-93
2024/04/13 06:31:38;;;;;;;;;;;;;;;18.85;66.23;102405.25;5232692;27;20859;-92
2024/04/13 06:34:03;;;;;;;;;;;;;;;18.96;66.60;102401.50;5235366;27;19931;-93
2024/04/13 06:36:29;;;;;;;;;;;;;;;19.11;66.06;102398.06;5236825;27;20658;-94
2024/04/13 06:38:56;;;;;;;;;;;;;;;19.24;65.37;102394.84;5234273;27;19963;-94
2024/04/13 06:41:24;;;;;;;;;;;;;;;19.32;65.31;102399.75;5213466;27;19943;-94
2024/04/13 06:43:50;;;;;;;;;;;;;;;19.36;65.55;102395.41;5229655;27;19931;-94
2024/04/13 06:46:20;;;;;;;;;;;;;;;19.48;65.55;102376.16;5223190;27;20174;-93
2024/04/13 06:48:48;;;;;;;;;;;;;;;19.57;65.22;102375.41;5232262;27;19940;-93
2024/04/13 06:51:13;;;;;;;;;;;;;;;19.65;65.05;102374.06;5227626;27;19932;-94
2024/04/13 06:53:39;;;;;;;;;;;;;;;19.76;64.97;102378.44;5230917;27;19933;-93
2024/04/13 06:56:05;;;;;;;;;;;;;;;19.85;64.33;102371.34;5245191;27;20011;-89
2024/04/13 06:58:30;;;;;;;;;;;;;;;19.94;64.02;102359.94;5226840;27;20003;-94
2024/04/13 07:00:56;;;;;;;;;;;;;;;20.00;63.91;102354.22;5225997;27;19973;-92
2024/04/13 07:03:21;;;;;;;;;;;;;;;20.12;64.20;102349.34;5226323;27;19939;-90
2024/04/13 07:05:53;;;;;;;;;;;;;;;20.20;63.53;102351.50;5232161;27;19936;-92
2024/04/13 07:08:18;;;;;;;;;;;;;;;20.32;63.74;102361.28;5204854;27;19940;-95
2024/04/13 07:10:43;;;;;;;;;;;;;;;20.47;63.43;102361.28;5222513;27;19932;-93
2024/04/13 07:13:09;;;;;;;;;;;;;;;20.59;62.78;102369.16;5228171;27;19931;-89
2024/04/13 07:15:34;;;;;;;;;;;;;;;20.65;62.42;102363.44;5234666;27;20258;-93
2024/04/13 07:17:59;;;;;;;;;;;;;;;20.69;62.28;102364.50;5204527;27;19932;-92
2024/04/13 07:20:24;;;;;;;;;;;;;;;20.74;62.14;102355.50;5235954;27;19932;-91
2024/04/13 07:22:49;;;;;;;;;;;;;;;20.81;61.89;102356.81;5250888;27;19967;-90
2024/04/13 07:25:15;;;;;;;;;;;;;;;20.87;61.87;102346.72;5219568;27;19932;-91
2024/04/13 07:27:40;;;;;;;;;;;;;;;20.95;61.78;102357.03;5232447;27;20010;-89
2024/04/13 07:30:06;;;;;;;;;;;;;;;21.07;61.76;102357.53;5242247;27;19931;-85
2024/04/13 07:32:31;;;;;;;;;;;;;;;21.18;61.19;102362.94;5231645;27;20557;-89
2024/04/13 07:34:56;;;;;;;;;;;;;;;21.19;61.15;102365.41;5237198;27;19932;-91
2024/04/13 07:37:22;;;;;;;;;;;;;;;21.21;61.22;102363.22;5244845;27;19938;-91
2024/04/13 07:39:47;;;;;;;;;;;;;;;21.28;61.13;102366.47;5246560;27;19932;-91
2024/04/13 07:42:12;;;;;;;;;;;;;;;21.33;61.03;102360.16;5233177;27;20811;-90
2024/04/13 07:44:37;;;;;;;;;;;;;;;21.39;60.58;102361.78;5250059;27;19983;-93
2024/04/13 07:47:03;;;;;;;;;;;;;;;21.46;60.54;102370.44;5247412;27;20640;-96
2024/04/13 07:49:29;;;;;;;;;;;;;;;21.56;60.46;102364.13;5237701;27;19936;-88
2024/04/13 07:51:54;;;;;;;;;;;;;;;21.65;60.14;102359.69;5234655;27;19931;-86
2024/04/13 07:54:19;;;;;;;;;;;;;;;21.73;59.77;102350.91;5249252;27;19931;-88
2024/04/13 07:56:45;;;;;;;;;;;;;;;21.79;59.65;102355.22;5241564;27;19932;-94
2024/04/13 07:59:10;;;;;;;;;;;;;;;21.81;59.12;102347.56;5206492;27;19971;-83
2024/04/13 08:01:35;;;;;;;;;;;;;;;21.79;58.87;102352.50;5236567;27;19932;-88
2024/04/13 08:04:00;;;;;;;;;;;;;;;21.81;59.14;102352.22;5205932;27;19959;-90
2024/04/13 08:06:26;;;;;;;;;;;;;;;21.84;59.03;102338.81;5245571;27;19935;-88
2024/04/13 08:08:51;;;;;;;;;;;;;;;21.92;58.93;102346.41;5250046;27;19938;-88
2024/04/13 08:11:16;;;;;;;;;;;;;;;21.99;58.77;102343.31;5248840;27;20001;-87
2024/04/13 08:13:42;;;;;;;;;;;;;;;22.05;58.94;102336.75;5238118;27;19932;-86
2024/04/13 08:16:07;;;;;;;;;;;;;;;22.19;59.10;102332.25;5227844;27;19935;-87
2024/04/13 08:18:33;;;;;;;;;;;;;;;22.39;58.98;102328.50;5201008;27;19931;-86
2024/04/13 08:20:58;;;;;;;;;;;;;;;22.57;57.84;102349.59;5238524;27;20436;-88
2024/04/13 08:23:24;;;;;;;;;;;;;;;22.66;57.95;102352.53;5229264;27;19932;-88
2024/04/13 08:25:50;;;;;;;;;;;;;;;22.74;57.40;102353.78;5241425;27;19952;-89
2024/04/13 08:28:15;;;;;;;;;;;;;;;22.79;57.61;102345.50;5232215;27;19932;-88
2024/04/13 08:30:41;;;;;;;;;;;;;;;22.87;57.05;102336.72;5237989;27;19932;-86
2024/04/13 08:33:06;;;;;;;;;;;;;;;22.94;57.10;102334.44;5230365;27;19950;-85
2024/04/13 08:35:31;;;;;;;;;;;;;;;23.01;56.54;102340.38;5230441;27;19938;-86
2024/04/13 08:37:56;;;;;;;;;;;;;;;23.04;56.16;102342.50;5244564;27;19932;-89
2024/04/13 08:40:22;;;;;;;;;;;;;;;23.13;56.38;102335.25;5211305;27;19971;-88
2024/04/13 08:42:52;;;;;;;;;;;;;;;23.18;56.28;102340.69;5240688;27;19942;-89
2024/04/13 08:45:17;;;;;;;;;;;;;;;23.38;56.87;102336.03;5240606;27;20371;-86
2024/04/13 08:47:43;;;;;;;;;;;;;;;23.55;56.22;102330.84;5239152;27;19932;-90
2024/04/13 08:50:08;;;;;;;;;;;;;;;23.63;55.63;102326.63;5245018;27;19931;-95
2024/04/13 08:52:34;;;;;;;;;;;;;;;23.72;55.22;102336.63;5250762;27;19938;-92
2024/04/13 08:54:59;;;;;;;;;;;;;;;23.79;55.41;102347.19;5231481;27;19933;-91
2024/04/13 08:57:25;;;;;;;;;;;;;;;23.91;54.77;102342.06;5236167;27;20731;-92
2024/04/13 08:59:55;;;;;;;;;;;;;;;24.01;54.20;102347.34;5203244;27;19946;-92
2024/04/13 09:02:22;;;;;;;;;;;;;;;23.99;54.21;102343.28;5227355;27;19936;-89
2024/04/13 09:04:51;;;;;;;;;;;;;;;24.02;54.14;102334.47;5231669;27;19936;-94
2024/04/13 09:07:22;;;;;;;;;;;;;;;24.13;54.49;102327.72;5226485;27;19939;-89
2024/04/13 09:09:48;;;;;;;;;;;;;;;24.26;54.31;102326.13;5221243;27;20373;-91
2024/04/13 09:12:14;;;;;;;;;;;;;;;24.33;53.66;102327.34;5238093;27;20401;-95
2024/04/13 09:14:39;;;;;;;;;;;;;;;24.45;53.91;102331.53;5232222;27;19935;-94
2024/04/13 09:17:04;;;;;;;;;;;;;;;24.54;52.81;102329.69;5225503;27;19932;-91
2024/04/13 09:19:30;;;;;;;;;;;;;;;24.61;53.38;102327.38;5212026;27;19940;-91
2024/04/13 09:21:55;;;;;;;;;;;;;;;24.74;51.69;102314.78;5232573;27;19986;-86
2024/04/13 09:24:21;;;;;;;;;;;;;;;24.80;51.93;102322.59;5227948;27;19947;-93
2024/04/13 09:26:46;;;;;;;;;;;;;;;24.87;51.78;102313.94;5237733;27;20010;-89
2024/04/13 09:29:13;;;;;;;;;;;;;;;24.99;51.74;102319.72;5234980;27;19939;-95
2024/04/13 09:31:41;;;;;;;;;;;;;;;25.06;51.68;102311.09;5235989;27;20389;-90
2024/04/13 09:34:06;;;;;;;;;;;;;;;25.13;51.24;102311.47;5230509;27;19931;-90
2024/04/13 09:36:31;;;;;;;;;;;;;;;25.16;50.92;102317.19;5228935;27;20032;-91
2024/04/13 09:38:57;;;;;;;;;;;;;;;25.23;50.85;102308.53;5231528;27;19947;-89
2024/04/13 09:41:26;;;;;;;;;;;;;;;25.26;50.67;102305.16;5228127;27;19971;-89
2024/04/13 09:43:51;;;;;;;;;;;;;;;25.33;49.76;102294.56;5231805;27;19947;-86
2024/04/13 09:46:17;;;;;;;;;;;;;;;25.39;49.59;102292.50;5232425;27;20340;-88
2024/04/13 09:48:43;;;;;;;;;;;;;;;25.40;49.84;102308.66;5226698;27;19948;-84
2024/04/13 09:51:08;;;;;;;;;;;;;;;25.38;49.41;102297.19;5227558;27;19935;-92
2024/04/13 09:53:33;;;;;;;;;;;;;;;25.32;48.25;102298.44;5199406;27;19939;-88
2024/04/13 09:55:58;;;;;;;;;;;;;;;25.19;48.26;102302.03;5234962;27;19931;-92
2024/04/13 09:58:24;;;;;;;;;;;;;;;25.10;47.23;102303.88;5228544;27;20477;-91
2024/04/13 10:00:50;;;;;;;;;;;;;;;25.04;48.26;102299.63;5231470;27;20053;-84
2024/04/13 10:03:15;;;;;;;;;;;;;;;25.04;48.64;102296.88;5234366;27;19931;-93
2024/04/13 10:05:43;;;;;;;;;;;;;;;25.15;48.30;102290.06;5226944;27;19956;-92
2024/04/13 10:08:08;;;;;;;;;;;;;;;25.26;48.52;102289.50;5232300;27;19931;-89
2024/04/13 10:10:35;;;;;;;;;;;;;;;25.41;47.17;102293.00;5232494;27;20357;-89
2024/04/13 10:13:02;;;;;;;;;;;;;;;25.47;47.13;102303.53;5230474;27;19931;-89
2024/04/13 10:15:27;;;;;;;;;;;;;;;25.47;47.22;102289.00;5230351;27;20011;-88
2024/04/13 10:17:53;;;;;;;;;;;;;;;25.51;46.96;102304.56;5233445;27;20699;-89
2024/04/13 10:20:18;;;;;;;;;;;;;;;25.67;46.19;102295.94;5226629;27;19974;-90
2024/04/13 10:22:56;;;;;;;;;;;;;;;25.80;47.09;102290.41;5245343;27;20696;-91
2024/04/13 10:25:28;;;;;;;;;;;;;;;25.78;46.02;102284.41;5227593;27;19939;-91
2024/04/13 10:28:19;;;;;;;;;;;;;;;25.92;46.78;102280.78;5236591;27;19980;-91
2024/04/13 10:30:45;;;;;;;;;;;;;;;26.12;46.71;102281.03;5234232;27;19946;-90
2024/04/13 10:33:17;;;;;;;;;;;;;;;26.32;46.57;102282.41;5222461;27;19932;-87
2024/04/13 10:35:52;;;;;;;;;;;;;;;26.42;45.18;102278.63;5222720;27;19941;-91
2024/04/13 10:38:17;;;;;;;;;;;;;;;26.43;44.11;102264.56;5231406;27;19937;-87
2024/04/13 10:40:43;;;;;;;;;;;;;;;26.43;43.92;102270.03;5229895;27;19943;-92
2024/04/13 10:43:15;;;;;;;;;;;;;;;26.46;44.13;102258.41;5235131;27;19931;-89
2024/04/13 10:45:41;;;;;;;;;;;;;;;26.60;44.44;102262.97;5227444;27;19938;-92
2024/04/13 10:48:06;;;;;;;;;;;;;;;26.70;44.53;102252.47;5238983;27;19940;-90
2024/04/13 10:50:33;;;;;;;;;;;;;;;26.82;44.10;102248.28;5200284;27;20438;-92
2024/04/13 10:52:58;;;;;;;;;;;;;;;26.95;43.87;102253.66;5233220;27;20183;-90
2024/04/13 10:55:23;;;;;;;;;;;;;;;27.13;43.40;102253.69;5230073;27;19944;-90
2024/04/13 10:57:49;;;;;;;;;;;;;;;27.25;43.31;102246.38;5203259;27;19964;-93
2024/04/13 11:00:15;;;;;;;;;;;;;;;27.29;42.68;102250.09;5226638;27;20618;-89
2024/04/13 11:02:40;;;;;;;;;;;;;;;27.34;42.26;102238.94;5235352;27;19938;-90
2024/04/13 11:05:05;;;;;;;;;;;;;;;27.32;42.49;102243.94;5229863;27;19931;-88
2024/04/13 11:07:31;;;;;;;;;;;;;;;27.36;41.88;102242.16;5238145;27;19935;-88
2024/04/13 11:09:56;;;;;;;;;;;;;;;27.27;41.81;102251.53;5234766;27;19932;-87
2024/04/13 11:12:22;;;;;;;;;;;;;;;27.24;41.62;102239.25;5225648;27;19939;-91
2024/04/13 11:14:49;;;;;;;;;;;;;;;27.29;40.68;102247.34;5234537;27;19932;-89
2024/04/13 11:17:14;;;;;;;;;;;;;;;27.27;40.82;102249.59;5223596;27;20002;-90
2024/04/13 11:19:39;;;;;;;;;;;;;;;27.19;40.89;102236.66;5234718;27;19939;-89
2024/04/13 11:22:05;;;;;;;;;;;;;;;27.16;41.39;102240.06;5234789;27;19930;-90
2024/04/13 11:24:31;;;;;;;;;;;;;;;27.23;41.75;102245.88;5231294;27;20373;-93
2024/04/13 11:26:56;;;;;;;;;;;;;;;27.27;41.22;102243.28;5228932;27;19947;-87
2024/04/13 11:29:22;;;;;;;;;;;;;;;27.32;41.73;102223.88;5215386;27;20252;-91
2024/04/13 11:31:47;;;;;;;;;;;;;;;27.43;41.21;102224.31;5227775;27;20327;-90
2024/04/13 11:34:13;;;;;;;;;;;;;;;27.57;41.93;102224.94;5216161;27;20178;-86
2024/04/13 11:36:38;;;;;;;;;;;;;;;27.67;41.11;102230.16;5234267;27;20758;-89
2024/04/13 11:39:03;;;;;;;;;;;;;;;27.73;40.52;102234.34;5214800;27;19954;-86
2024/04/13 11:41:29;;;;;;;;;;;;;;;27.79;41.29;102233.00;5212625;27;19967;-88
2024/04/13 11:43:55;;;;;;;;;;;;;;;27.78;41.30;102230.59;5218123;27;19944;-92
2024/04/13 11:46:20;;;;;;;;;;;;;;;27.79;41.01;102227.50;5221919;27;20375;-83
2024/04/13 11:48:46;;;;;;;;;;;;;;;27.84;40.59;102216.31;5223808;27;19932;-91
2024/04/13 11:51:11;;;;;;;;;;;;;;;27.88;40.92;102222.78;5202839;27;20301;-90
2024/04/13 11:53:37;;;;;;;;;;;;;;;27.88;40.38;102217.28;5229324;27;20002;-90
2024/04/13 11:56:07;;;;;;;;;;;;;;;27.89;41.03;102215.31;5226162;27;19932;-91
2024/04/13 11:58:32;;;;;;;;;;;;;;;27.94;41.22;102210.44;5214441;27;19942;-91
2024/04/13 12:00:57;;;;;;;;;;;;;;;28.06;40.37;102206.19;5219791;27;19938;-92
2024/04/13 12:03:22;;;;;;;;;;;;;;;28.08;40.05;102203.91;5213533;27;20376;-86
2024/04/13 12:05:48;;;;;;;;;;;;;;;28.11;40.32;102206.78;5228483;27;19999;-89
2024/04/13 12:08:13;;;;;;;;;;;;;;;28.15;39.58;102204.16;5219827;27;19940;-90
2024/04/13 12:10:38;;;;;;;;;;;;;;;28.14;39.98;102200.59;5217520;27;19943;-88
2024/04/13 12:13:04;;;;;;;;;;;;;;;28.20;40.04;102196.53;5232568;27;19939;-89
2024/04/13 12:15:29;;;;;;;;;;;;;;;28.28;39.69;102195.69;5222999;27;19939;-90
2024/04/13 12:17:54;;;;;;;;;;;;;;;28.34;39.02;102176.19;5224912;27;20027;-85
2024/04/13 12:20:19;;;;;;;;;;;;;;;28.36;38.19;102183.00;5220479;27;19932;-92
2024/04/13 12:22:45;;;;;;;;;;;;;;;28.35;38.19;102175.06;5223861;27;19932;-89
2024/04/13 12:25:10;;;;;;;;;;;;;;;28.39;38.88;102163.06;5229628;27;20336;-88
2024/04/13 12:27:35;;;;;;;;;;;;;;;28.48;38.71;102166.53;5228224;27;19939;-88
2024/04/13 12:30:01;;;;;;;;;;;;;;;28.48;38.70;102163.78;5222565;27;21690;-94